Latest Weather Observations for Bougainville Reef

IDQ60801

Issued at 6:35 pm EST Friday 6 March 2015 (issued every 30 minutes, with the page automatically refreshed every 10 minutes)

About weather observations | Map of weather stations | Latest weather observations for QLD | Other Formats
Station Details ID: 200840 Name: BOUGAINVILLE REEF Lat: -15.49 Lon: 147.12 Height: 0.0 m
Data from the previous 72 hours. | See also: Recent months for locations in Queensland
Date/Time
EST
Temp
°C
App
Temp
°C
Dew
Point
Rel
Hum
%
Delta-T
°C
Wind Press
QNH
hPa
Press
MSL
hPa
Rain
since 9 am
mm
Dir
 
Spd
km/h
Gust
km/h
Spd
kts
Gust
kts
06/06:30pm 29.7 - - - - SE 9 11 5 6 1004.4 - -
06/06:00pm 29.9 - - - - SE 9 9 5 5 1004.2 1004.1 -
06/05:30pm 30.3 - - - - SSE 7 9 4 5 1003.9 - -
06/05:00pm 30.7 - - - - SSE 6 9 3 5 1003.8 1003.9 -
06/04:30pm 29.8 - - - - SSE 6 11 3 6 1003.9 - -
06/04:00pm 29.9 - - - - E 4 11 2 6 1003.8 1003.7 -
06/03:30pm 29.6 - - - - SE 6 9 3 5 1003.8 - -
06/03:00pm 29.6 - - - - ESE 7 9 4 5 1004.0 1004.0 -
06/02:30pm 29.4 - - - - SE 7 11 4 6 1004.1 - -
06/02:00pm 29.3 - - - - ESE 6 9 3 5 1004.2 1004.2 -
06/01:30pm 29.3 - - - - ESE 2 6 1 3 1004.5 - -
06/01:00pm 29.3 - - - - CALM 0 6 0 3 1005.1 - -
06/12:30pm 29.5 - - - - CALM 0 4 0 2 1005.6 - -
06/12:00pm 29.8 - - - - CALM 0 0 0 0 1006.1 1006.2 -
06/11:30am 29.9 - - - - CALM 0 0 0 0 1006.3 - -
06/11:00am 30.3 - - - - CALM 0 0 0 0 1006.7 1006.8 -
06/10:30am 29.5 - - - - CALM 0 4 0 2 1006.9 - -
06/10:00am 30.5 - - - - CALM 0 11 0 6 1007.0 1006.9 -
06/09:30am 30.9 - - - - CALM 0 6 0 3 1007.0 - -
06/09:00am 30.4 - - - - CALM 0 0 0 0 1007.0 1007.0 -
06/08:30am 31.6 - - - - CALM 0 0 0 0 1006.8 - -
06/08:00am 30.3 - - - - CALM 0 0 0 0 1006.5 1006.5 -
06/07:30am 30.6 - - - - CALM 0 0 0 0 1006.3 - -
06/07:00am 29.3 - - - - NNE 4 0 2 0 1006.1 1006.0 -
06/06:30am 28.4 - - - - E 4 7 2 4 1005.9 - -
06/06:00am 28.3 - - - - SE 7 7 4 4 1005.9 1005.7 -
06/05:30am 28.4 - - - - SSE 6 9 3 5 1005.6 - -
06/05:00am 28.3 - - - - SSE 7 9 4 5 1005.2 1005.2 -
06/04:30am 28.3 - - - - SE 7 9 4 5 1005.1 - -
06/04:00am 28.3 - - - - E 13 15 7 8 1005.1 1005.1 -
06/03:30am 28.2 - - - - E 15 15 8 8 1005.1 - -
06/03:00am 27.9 - - - - E 19 19 10 10 1005.4 1005.4 -
06/02:30am 28.6 - - - - ESE 13 15 7 8 1005.7 - -
06/02:00am 28.6 - - - - SE 19 20 10 11 1005.8 1005.9 -
06/01:30am 28.6 - - - - ESE 20 22 11 12 1006.0 - -
06/01:00am 28.8 - - - - ESE 19 22 10 12 1006.4 1006.7 -
06/12:30am 28.5 - - - - SSE 20 26 11 14 1007.0 - -
06/12:00am 28.7 - - - - ESE 20 24 11 13 1007.3 1007.6 -
 
Date/Time
EST
Temp
°C
App
Temp
°C
Dew
Point
Rel
Hum
%
Delta-T
°C
Wind Press
QNH
hPa
Press
MSL
hPa
Rain
since 9 am
mm
Dir
 
Spd
km/h
Gust
km/h
Spd
kts
Gust
kts
05/11:30pm 28.8 - - - - SE 22 24 12 13 1007.7 - -
05/11:00pm 28.9 - - - - SE 22 24 12 13 1007.8 1007.9 -
05/10:30pm 29.0 - - - - SSE 24 28 13 15 1007.9 - -
05/10:00pm 29.0 - - - - SSE 20 26 11 14 1008.0 1007.8 -
05/09:30pm 29.0 - - - - SE 22 26 12 14 1007.6 - -
05/09:00pm 28.9 - - - - SSE 20 26 11 14 1007.3 1007.2 -
05/08:30pm 28.7 - - - - SSE 22 26 12 14 1006.9 - -
05/08:00pm 28.8 - - - - SSE 22 28 12 15 1006.6 1006.6 -
05/07:30pm 28.7 - - - - SSE 22 26 12 14 1006.2 - -
05/07:00pm 28.8 - - - - SSE 24 26 13 14 1006.0 1006.0 -
05/06:30pm 28.8 - - - - SSE 24 30 13 16 1006.1 - -
05/06:00pm 28.9 - - - - SSE 24 28 13 15 1005.9 1005.8 -
05/05:30pm 28.7 - - - - SSE 22 28 12 15 1005.6 - -
05/05:00pm 28.7 - - - - SSE 24 28 13 15 1005.4 1005.4 -
05/04:30pm 28.6 - - - - SSE 26 30 14 16 1005.4 - -
05/04:00pm 28.6 - - - - SE 20 24 11 13 1005.6 1005.6 -
05/03:30pm 28.8 - - - - SSE 22 28 12 15 1005.7 - -
05/03:00pm 28.7 - - - - SSE 19 24 10 13 1006.1 1006.3 -
05/02:30pm 28.5 - - - - SE 19 22 10 12 1006.3 - -
05/02:00pm 28.5 - - - - SE 20 24 11 13 1006.7 1006.8 -
05/01:30pm 28.5 - - - - SSE 20 24 11 13 1007.1 - -
05/01:00pm 28.3 - - - - SE 17 20 9 11 1007.4 1007.6 -
05/12:30pm 28.3 - - - - SE 20 22 11 12 1007.8 - -
05/12:00pm 28.3 - - - - SE 22 24 12 13 1008.2 1008.5 -
05/11:30am 28.3 - - - - SE 26 30 14 16 1008.8 - -
05/11:00am 28.2 - - - - ESE 20 26 11 14 1009.1 1009.2 -
05/10:30am 28.0 - - - - ESE 20 24 11 13 1009.2 - -
05/10:00am 27.7 - - - - ESE 22 28 12 15 1009.7 1009.6 -
05/09:30am 27.0 - - - - SSE 20 24 11 13 1009.7 - -
05/09:00am 26.2 - - - - S 30 32 16 17 1009.9 1009.8 -
05/08:30am 26.2 - - - - SSE 37 46 20 25 1009.9 - -
05/08:17am 26.0 - - - - SSE 43 54 23 29 1009.6 - -
05/08:08am 26.7 - - - - ESE 28 46 15 25 1009.5 - -
05/08:00am 27.5 - - - - SE 22 32 12 17 1009.2 1009.2 -
05/07:00am 28.2 - - - - ESE 28 30 15 16 1008.3 1008.0 -
05/06:30am 28.2 - - - - ESE 26 30 14 16 1007.8 - -
05/06:00am 28.5 - - - - SE 28 32 15 17 1007.6 1007.5 -
05/05:30am 28.5 - - - - SE 24 30 13 16 1007.4 - -
05/05:00am 28.5 - - - - SE 26 30 14 16 1007.3 1007.1 -
05/04:30am 28.4 - - - - SE 24 28 13 15 1006.8 - -
05/04:00am 28.5 - - - - SE 20 24 11 13 1006.7 1006.7 -
05/03:30am 28.5 - - - - SE 22 26 12 14 1006.7 - -
05/03:00am 28.6 - - - - SE 24 28 13 15 1007.0 1007.2 -
05/02:30am 28.5 - - - - SE 24 28 13 15 1007.4 - -
05/02:00am 28.5 - - - - SE 22 26 12 14 1007.4 1007.6 -
05/01:30am 28.5 - - - - SE 20 24 11 13 1008.0 - -
05/01:00am 28.7 - - - - SE 24 26 13 14 1008.4 1008.5 -
05/12:30am 28.7 - - - - SE 24 28 13 15 1008.5 - -
05/12:00am 28.7 - - - - SE 24 32 13 17 1009.0 1009.1 -
 
Date/Time
EST
Temp
°C
App
Temp
°C
Dew
Point
Rel
Hum
%
Delta-T
°C
Wind Press
QNH
hPa
Press
MSL
hPa
Rain
since 9 am
mm
Dir
 
Spd
km/h
Gust
km/h
Spd
kts
Gust
kts
04/11:30pm 28.7 - - - - SE 28 30 15 16 1009.2 - -
04/11:00pm 28.9 - - - - SE 30 30 16 16 1009.0 1009.1 -
04/10:30pm 28.9 - - - - SE 28 32 15 17 1009.3 - -
04/10:00pm 28.9 - - - - SE 28 32 15 17 1009.0 1009.0 -
04/09:30pm 29.0 - - - - SE 28 32 15 17 1009.0 - -
04/09:00pm 29.1 - - - - SE 30 35 16 19 1008.8 1008.7 -
04/08:30pm 28.9 - - - - ESE 26 30 14 16 1008.6 - -
04/08:00pm 28.7 - - - - ESE 28 35 15 19 1008.4 1008.4 -
04/07:30pm 28.7 - - - - ESE 28 32 15 17 1008.2 - -
04/07:00pm 29.0 - - - - ESE 30 33 16 18 1007.8 1007.8 -
04/06:30pm 29.0 - - - - SE 30 35 16 19 1007.5 - -
04/06:00pm 29.0 - - - - ESE 28 33 15 18 1007.2 1007.4 -
04/05:30pm 28.9 - - - - ESE 28 33 15 18 1007.5 - -
04/05:00pm 29.0 - - - - ESE 28 33 15 18 1007.2 1007.1 -
04/04:30pm 28.9 - - - - ESE 30 33 16 18 1007.1 - -
04/04:00pm 28.7 - - - - ESE 30 33 16 18 1006.9 1006.9 -
04/03:30pm 28.8 - - - - ESE 30 32 16 17 1007.1 - -
04/03:00pm 28.9 - - - - ESE 28 33 15 18 1007.1 1007.2 -
04/02:30pm 28.7 - - - - SE 28 32 15 17 1007.2 - -
04/02:00pm 28.7 - - - - SE 30 33 16 18 1007.3 1007.3 -
04/01:30pm 28.8 - - - - ESE 30 35 16 19 1007.6 - -
04/01:00pm 28.9 - - - - SE 32 35 17 19 1007.9 1008.0 -
04/12:30pm 28.7 - - - - SE 30 35 16 19 1008.5 - -
04/12:00pm 29.0 - - - - ESE 28 33 15 18 1008.9 1009.0 -
04/11:30am 28.9 - - - - ESE 30 33 16 18 1009.1 - -
04/11:00am 28.9 - - - - ESE 28 35 15 19 1009.3 1009.2 -
04/10:30am 28.7 - - - - SE 26 30 14 16 1009.2 - -
04/10:00am 28.8 - - - - ESE 28 30 15 16 1009.3 1009.3 -
04/09:30am 28.6 - - - - ESE 26 30 14 16 1009.3 - -
04/09:00am 28.8 - - - - ESE 28 35 15 19 1009.2 1009.1 -
04/08:30am 28.7 - - - - ESE 30 35 16 19 1008.9 - -
04/08:00am 28.5 - - - - ESE 30 35 16 19 1008.7 1008.6 -
04/07:30am 28.5 - - - - ESE 32 35 17 19 1008.6 - -
04/07:00am 28.5 - - - - SE 32 35 17 19 1008.1 1007.9 -
04/06:30am 28.3 - - - - SE 33 37 18 20 1007.8 - -
04/06:00am 28.4 - - - - ESE 35 39 19 21 1007.3 1007.2 -
04/05:30am 28.3 - - - - ESE 37 41 20 22 1007.0 - -
04/05:00am 28.3 - - - - ESE 32 39 17 21 1006.7 1006.7 -
04/04:30am 28.1 - - - - ESE 35 41 19 22 1006.6 - -
04/04:00am 28.0 - - - - ESE 37 43 20 23 1006.6 1006.7 -
04/03:30am 28.1 - - - - ESE 35 43 19 23 1006.7 - -
04/03:00am 28.2 - - - - ESE 39 43 21 23 1006.8 1006.9 -
04/02:30am 27.5 - - - - ESE 32 35 17 19 1007.2 - -
04/02:00am 26.5 - - - - ESE 19 32 10 17 1007.7 1007.8 -
04/01:30am 24.9 - - - - ESE 30 43 16 23 1008.3 - -
04/01:06am 25.8 - - - - ESE 33 41 18 22 1008.8 - -
04/01:00am 24.5 - - - - ESE 17 15 9 8 1008.8 1008.9 -
04/12:30am 24.9 - - - - ESE 39 48 21 26 1009.3 - -
04/12:00am 26.1 - - - - E 32 46 17 25 1009.6 1009.5 -
 
Date/Time
EST
Temp
°C
App
Temp
°C
Dew
Point
Rel
Hum
%
Delta-T
°C
Wind Press
QNH
hPa
Press
MSL
hPa
Rain
since 9 am
mm
Dir
 
Spd
km/h
Gust
km/h
Spd
kts
Gust
kts
03/11:30pm 26.6 - - - - E 30 39 16 21 1009.6 - -
03/11:09pm 26.6 - - - - E 33 48 18 26 1009.7 - -
03/11:00pm 27.6 - - - - SE 26 50 14 27 1009.7 1009.5 -
03/10:54pm 27.3 - - - - SE 28 50 15 27 1009.7 - -
03/10:30pm 27.7 - - - - ESE 22 26 12 14 1009.5 - -
03/10:00pm 28.0 - - - - ESE 30 35 16 19 1009.5 1009.4 -
03/09:30pm 27.0 - - - - E 32 44 17 24 1009.2 - -
03/09:00pm 27.7 - - - - E 24 28 13 15 1009.1 1009.0 -
03/08:30pm 28.8 - - - - SE 30 35 16 19 1008.9 - -
03/08:00pm 28.6 - - - - SSE 33 39 18 21 1008.6 1008.5 -
03/07:30pm 28.6 - - - - SSE 32 39 17 21 1008.3 - -
03/07:00pm 28.7 - - - - SE 28 33 15 18 1008.0 1007.8 -

Other Formats:

Comma delimited format used in spreadsheet applications
http://www.bom.gov.au/fwo/IDQ60801/IDQ60801.95288.axf

JavaScript Object Notation format (JSON) in row-major order
http://www.bom.gov.au/fwo/IDQ60801/IDQ60801.95288.json